createdAt,value
2023-05-05T05:04:50.757Z,81.60
2023-05-05T05:07:52.414Z,81.70
2023-05-05T05:10:54.038Z,81.80
2023-05-05T05:13:56.791Z,81.70
2023-05-05T05:16:58.417Z,81.80
2023-05-05T05:20:04.590Z,81.80
2023-05-05T05:23:06.395Z,81.80
2023-05-05T05:26:08.036Z,81.80
2023-05-05T05:29:09.714Z,81.90
2023-05-05T05:32:11.462Z,81.80
2023-05-05T05:35:13.244Z,81.50
2023-05-05T05:38:14.904Z,81.10
2023-05-05T05:41:17.434Z,80.70
2023-05-05T05:44:19.127Z,80.30
2023-05-05T05:47:20.852Z,80.00
2023-05-05T05:50:22.553Z,79.90
2023-05-05T05:53:24.426Z,80.00
2023-05-05T05:56:26.074Z,79.90
2023-05-05T05:59:28.007Z,79.80
2023-05-05T06:02:31.063Z,79.70
2023-05-05T06:05:32.792Z,79.50
2023-05-05T06:08:34.437Z,79.20
2023-05-05T06:11:37.058Z,79.20
2023-05-05T06:14:38.987Z,79.10
2023-05-05T06:17:40.663Z,78.90
2023-05-05T06:20:43.397Z,78.80
2023-05-05T06:23:45.221Z,78.70
2023-05-05T06:26:46.846Z,78.70
2023-05-05T06:29:49.070Z,78.60
2023-05-05T06:32:50.841Z,78.40
2023-05-05T06:35:52.814Z,78.30
2023-05-05T06:38:54.468Z,78.30
2023-05-05T06:41:56.296Z,78.10
2023-05-05T06:44:58.236Z,78.10
2023-05-05T06:47:59.907Z,78.10
2023-05-05T06:51:01.696Z,78.10
2023-05-05T06:54:03.596Z,78.00
2023-05-05T06:57:05.274Z,78.10
2023-05-05T07:00:11.162Z,78.20
2023-05-05T07:03:13.196Z,78.20
2023-05-05T07:06:15.044Z,78.20
2023-05-05T07:09:17.545Z,78.10
2023-05-05T07:12:19.367Z,77.80
2023-05-05T07:15:28.704Z,77.20
2023-05-05T07:18:31.360Z,76.80
2023-05-05T07:21:34.158Z,76.60
2023-05-05T07:24:36.014Z,76.50
2023-05-05T07:27:37.662Z,76.60
2023-05-05T07:30:39.321Z,76.70
2023-05-05T07:33:41.292Z,76.90
2023-05-05T07:36:43.059Z,77.00
2023-05-05T07:39:44.770Z,77.10
2023-05-05T07:42:47.496Z,77.20
2023-05-05T07:45:49.254Z,77.30
2023-05-05T07:48:51.233Z,77.70
2023-05-05T07:51:53.683Z,78.00
2023-05-05T07:54:55.580Z,77.90
2023-05-05T07:57:57.263Z,77.80
2023-05-05T08:00:59.410Z,77.80
2023-05-05T08:04:01.219Z,77.90
2023-05-05T08:07:03.088Z,77.90
2023-05-05T08:10:05.087Z,77.90
2023-05-05T08:13:06.822Z,78.00
2023-05-05T08:16:09.104Z,78.10
2023-05-05T08:19:21.088Z,77.80
2023-05-05T08:22:29.768Z,76.70
2023-05-05T08:25:31.473Z,75.60
2023-05-05T08:28:34.557Z,74.90
2023-05-05T08:31:39.584Z,74.40
2023-05-05T08:34:41.336Z,73.80
2023-05-05T08:37:43.178Z,73.60
2023-05-05T08:40:45.142Z,73.60
2023-05-05T08:43:47.992Z,73.50
2023-05-05T08:46:49.795Z,73.30
2023-05-05T08:49:52.688Z,73.00
2023-05-05T08:53:04.273Z,72.70
2023-05-05T08:56:06.171Z,72.70
2023-05-05T08:59:09.029Z,72.40
2023-05-05T09:02:10.960Z,71.90
2023-05-05T09:05:12.597Z,71.50
2023-05-05T09:08:14.227Z,71.20
2023-05-05T09:11:15.901Z,70.90
2023-05-05T09:14:17.876Z,70.90
2023-05-05T09:17:25.749Z,70.80
2023-05-05T09:20:35.140Z,70.00
2023-05-05T09:23:37.023Z,69.00
2023-05-05T09:26:43.062Z,68.00
2023-05-05T09:29:49.646Z,67.40
2023-05-05T09:32:52.804Z,67.10
2023-05-05T09:35:54.912Z,66.90
2023-05-05T09:39:06.341Z,66.60
2023-05-05T09:42:17.866Z,66.40
2023-05-05T09:45:19.925Z,65.90
2023-05-05T09:48:28.611Z,65.40
2023-05-05T09:51:31.685Z,65.20
2023-05-05T09:54:34.672Z,65.00
2023-05-05T09:57:36.319Z,64.80
2023-05-05T10:00:39.157Z,64.50
2023-05-05T10:03:51.421Z,64.00
2023-05-05T10:06:53.072Z,63.90
2023-05-05T10:09:54.700Z,64.00
2023-05-05T10:12:58.537Z,63.60
2023-05-05T10:16:00.290Z,62.90
2023-05-05T10:19:02.912Z,62.60
2023-05-05T10:22:04.718Z,62.40
2023-05-05T10:25:10.267Z,62.00
2023-05-05T10:28:13.050Z,62.40
2023-05-05T10:31:25.939Z,62.80
2023-05-05T10:34:40.900Z,62.60
2023-05-05T10:37:42.545Z,62.30
2023-05-05T10:40:47.262Z,62.20
2023-05-05T10:43:49.069Z,62.20
2023-05-05T10:46:50.797Z,62.30
2023-05-05T10:50:27.431Z,62.40
2023-05-05T10:53:30.834Z,62.60
2023-05-05T10:56:33.796Z,62.80
2023-05-05T10:59:38.942Z,62.60
2023-05-05T11:02:41.351Z,62.00
2023-05-05T11:06:05.032Z,61.20
2023-05-05T11:09:28.669Z,60.70
2023-05-05T11:12:31.366Z,60.40
2023-05-05T11:15:37.374Z,60.00
2023-05-05T11:18:40.291Z,59.60
2023-05-05T11:22:00.793Z,58.90
2023-05-05T11:25:48.269Z,58.90
2023-05-05T11:29:02.566Z,59.00
2023-05-05T11:32:14.021Z,58.50
2023-05-05T11:35:16.218Z,58.00
2023-05-05T11:38:17.848Z,57.90
2023-05-05T11:41:28.653Z,57.70
2023-05-05T11:44:33.777Z,57.60
2023-05-05T11:47:36.182Z,58.00
2023-05-05T11:50:37.908Z,58.40
2023-05-05T11:53:43.843Z,58.60
2023-05-05T11:56:53.134Z,58.30
2023-05-05T12:00:02.539Z,57.60
2023-05-05T12:03:04.640Z,56.90
2023-05-05T12:06:07.054Z,56.30
2023-05-05T12:09:15.357Z,55.80
2023-05-05T12:12:17.182Z,55.50
2023-05-05T12:15:28.315Z,55.60
2023-05-05T12:18:30.177Z,55.70
2023-05-05T12:21:32.195Z,55.50
2023-05-05T12:24:34.404Z,55.40
2023-05-05T12:27:36.394Z,55.50
2023-05-05T12:30:38.249Z,55.80
2023-05-05T12:33:40.357Z,56.00
2023-05-05T12:36:42.344Z,55.80
2023-05-05T12:39:44.072Z,55.80
2023-05-05T12:42:46.464Z,55.50
2023-05-05T12:45:49.432Z,56.00
2023-05-05T12:49:05.353Z,56.40
2023-05-05T12:52:07.885Z,56.50
2023-05-05T12:55:10.257Z,56.40
2023-05-05T12:58:11.995Z,56.30
2023-05-05T13:01:13.649Z,56.60
2023-05-05T13:04:15.397Z,56.50
2023-05-05T13:07:17.879Z,56.30
2023-05-05T13:10:19.638Z,56.30
2023-05-05T13:13:21.473Z,56.30
2023-05-05T13:16:23.253Z,56.10
2023-05-05T13:19:25.184Z,55.90
2023-05-05T13:22:27.068Z,55.50
2023-05-05T13:25:28.713Z,55.10
2023-05-05T13:28:30.523Z,54.80
2023-05-05T13:31:32.302Z,54.80
2023-05-05T13:34:34.170Z,54.90
2023-05-05T13:37:36.012Z,54.70
2023-05-05T13:40:37.714Z,54.00
2023-05-05T13:43:39.609Z,53.00
2023-05-05T13:46:44.078Z,52.40
2023-05-05T13:49:45.980Z,52.20
2023-05-05T13:52:47.652Z,52.50
2023-05-05T13:55:49.316Z,52.50
2023-05-05T13:58:50.949Z,52.30
2023-05-05T14:01:52.771Z,52.30
2023-05-05T14:04:54.411Z,52.00
2023-05-05T14:07:56.209Z,51.80
2023-05-05T14:10:57.905Z,51.40
2023-05-05T14:13:59.898Z,51.40
2023-05-05T14:17:01.614Z,51.70
2023-05-05T14:20:03.631Z,52.20
2023-05-05T14:23:05.464Z,52.40
2023-05-05T14:26:08.927Z,52.30
2023-05-05T14:29:10.781Z,52.20
2023-05-05T14:32:12.509Z,52.20
2023-05-05T14:35:14.474Z,52.60
2023-05-05T14:38:16.166Z,53.10
2023-05-05T14:41:17.817Z,53.40
2023-05-05T14:44:19.768Z,53.20
2023-05-05T14:47:21.420Z,53.30
2023-05-05T14:50:23.219Z,53.50
2023-05-05T14:53:25.052Z,53.50
2023-05-05T14:56:26.856Z,53.70
2023-05-05T14:59:28.844Z,53.90
2023-05-05T15:02:30.767Z,53.80
2023-05-05T15:05:32.481Z,53.20
2023-05-05T15:08:34.276Z,52.80
2023-05-05T15:11:35.965Z,52.30
2023-05-05T15:14:38.161Z,51.90
2023-05-05T15:17:41.609Z,51.20
2023-05-05T15:20:43.434Z,50.90
2023-05-05T15:23:45.280Z,50.50
2023-05-05T15:26:46.902Z,50.00
2023-05-05T15:29:48.806Z,49.90
2023-05-05T15:32:51.199Z,49.90
2023-05-05T15:35:52.887Z,49.40
2023-05-05T15:38:54.543Z,48.70
2023-05-05T15:41:56.179Z,48.30
2023-05-05T15:44:58.673Z,47.70
2023-05-05T15:48:00.378Z,46.90
2023-05-05T15:51:02.094Z,46.70
2023-05-05T15:54:04.001Z,46.40
2023-05-05T15:57:05.697Z,46.40
2023-05-05T16:00:08.411Z,46.70
2023-05-05T16:03:10.156Z,46.90
2023-05-05T16:06:12.323Z,47.10
2023-05-05T16:09:13.982Z,47.20
2023-05-05T16:12:15.784Z,47.30
2023-05-05T16:15:17.762Z,47.50
2023-05-05T16:18:19.450Z,47.40
2023-05-05T16:21:21.072Z,47.40
2023-05-05T16:24:23.382Z,47.40
2023-05-05T16:27:25.033Z,47.60
2023-05-05T16:30:26.782Z,48.00
2023-05-05T16:33:28.747Z,48.60
2023-05-05T16:36:30.429Z,49.40
2023-05-05T16:39:32.996Z,50.00
2023-05-05T16:42:34.732Z,50.30
2023-05-05T16:45:36.442Z,50.60
2023-05-05T16:48:38.120Z,50.80
2023-05-05T16:51:39.754Z,51.20
2023-05-05T16:54:41.730Z,51.40
2023-05-05T16:57:43.463Z,51.50
2023-05-05T17:00:46.769Z,51.70
2023-05-05T17:03:48.442Z,51.90
2023-05-05T17:06:50.786Z,52.10
2023-05-05T17:09:52.420Z,52.50
2023-05-05T17:12:54.288Z,52.80
2023-05-05T17:15:57.217Z,53.10
2023-05-05T17:18:58.835Z,53.10
2023-05-05T17:22:00.719Z,53.10
2023-05-05T17:25:03.741Z,52.80
2023-05-05T17:28:05.455Z,52.90
2023-05-05T17:31:07.098Z,53.10
2023-05-05T17:34:08.870Z,53.40
2023-05-05T17:37:11.014Z,53.60
2023-05-05T17:40:12.746Z,54.00
2023-05-05T17:43:14.481Z,54.10
2023-05-05T17:46:16.169Z,54.40
2023-05-05T17:49:17.868Z,54.70
2023-05-05T17:52:20.111Z,55.00
2023-05-05T17:55:21.914Z,55.20
2023-05-05T17:58:23.620Z,55.30
2023-05-05T18:01:25.982Z,55.60
2023-05-05T18:04:27.642Z,55.80
2023-05-05T18:07:29.588Z,56.00
2023-05-05T18:10:33.838Z,56.40
2023-05-05T18:13:36.109Z,56.60
2023-05-05T18:16:37.765Z,56.80
2023-05-05T18:19:44.247Z,56.90
2023-05-05T18:22:46.618Z,56.90
2023-05-05T18:25:48.239Z,57.10
2023-05-05T18:28:49.968Z,57.20
2023-05-05T18:31:54.611Z,57.30
2023-05-05T18:34:56.561Z,57.60
2023-05-05T18:37:58.190Z,57.90
2023-05-05T18:40:59.841Z,58.20
2023-05-05T18:44:01.793Z,58.40
2023-05-05T18:47:03.614Z,58.70
2023-05-05T18:50:06.082Z,59.00
2023-05-05T18:53:08.092Z,59.40
2023-05-05T18:56:09.777Z,59.70
2023-05-05T18:59:11.691Z,60.10
2023-05-05T19:02:13.366Z,60.30
2023-05-05T19:05:15.152Z,60.70
2023-05-05T19:08:16.796Z,61.00
2023-05-05T19:11:18.483Z,61.30
2023-05-05T19:14:20.284Z,61.60
2023-05-05T19:17:21.916Z,61.90
2023-05-05T19:20:23.621Z,62.10
2023-05-05T19:23:25.552Z,62.30
2023-05-05T19:26:27.531Z,62.80
2023-05-05T19:29:32.011Z,63.10
2023-05-05T19:32:34.022Z,63.30
2023-05-05T19:35:35.811Z,63.40
2023-05-05T19:38:37.450Z,63.60
2023-05-05T19:41:39.164Z,63.80
2023-05-05T19:44:41.051Z,64.00
2023-05-05T19:47:42.808Z,64.50
2023-05-05T19:50:44.466Z,64.80
2023-05-05T19:53:46.336Z,65.10
2023-05-05T19:56:48.131Z,65.30
2023-05-05T19:59:49.854Z,65.50
2023-05-05T20:02:51.868Z,65.70
2023-05-05T20:05:53.557Z,66.10
2023-05-05T20:08:55.538Z,66.60
2023-05-05T20:11:58.958Z,66.90
2023-05-05T20:15:01.274Z,67.20
2023-05-05T20:18:03.061Z,67.60
2023-05-05T20:21:04.900Z,67.90
2023-05-05T20:24:07.131Z,68.30
2023-05-05T20:27:08.774Z,68.50
2023-05-05T20:30:11.883Z,68.50
2023-05-05T20:33:13.655Z,68.70
2023-05-05T20:36:15.640Z,68.90
2023-05-05T20:39:17.433Z,69.10
2023-05-05T20:42:19.485Z,69.20
2023-05-05T20:45:21.426Z,69.40
2023-05-05T20:48:25.981Z,69.70
2023-05-05T20:51:31.445Z,69.80
2023-05-05T20:54:36.566Z,69.90
2023-05-05T20:57:38.248Z,70.00
2023-05-05T21:00:39.988Z,70.00
2023-05-05T21:03:41.733Z,70.10
2023-05-05T21:06:43.419Z,70.20
2023-05-05T21:09:48.039Z,70.30
2023-05-05T21:12:49.882Z,70.50
2023-05-05T21:15:51.669Z,70.70
2023-05-05T21:18:53.322Z,70.90
2023-05-05T21:21:58.882Z,71.10
2023-05-05T21:25:17.139Z,71.20
2023-05-05T21:28:18.797Z,71.60
2023-05-05T21:31:22.263Z,71.60
2023-05-05T21:34:24.479Z,71.70
2023-05-05T21:37:26.256Z,72.00
2023-05-05T21:40:27.950Z,72.20
2023-05-05T21:43:29.709Z,72.20
2023-05-05T21:46:31.497Z,72.40
2023-05-05T21:49:33.221Z,72.50
2023-05-05T21:52:35.042Z,72.60
2023-05-05T21:55:36.669Z,72.60
2023-05-05T21:58:38.339Z,72.60
2023-05-05T22:01:40.098Z,72.80
2023-05-05T22:04:41.834Z,72.90
2023-05-05T22:07:43.487Z,73.00
2023-05-05T22:10:45.259Z,73.00
2023-05-05T22:13:47.130Z,73.20
2023-05-05T22:16:48.867Z,73.40
2023-05-05T22:19:50.645Z,73.40
2023-05-05T22:22:52.409Z,73.40
2023-05-05T22:25:54.076Z,73.40
2023-05-05T22:28:55.818Z,73.50
2023-05-05T22:31:57.541Z,73.60
2023-05-05T22:34:59.255Z,73.70
2023-05-05T22:38:01.422Z,73.80
2023-05-05T22:41:03.068Z,74.00
2023-05-05T22:44:04.962Z,74.30
2023-05-05T22:47:07.024Z,74.40
2023-05-05T22:50:09.206Z,74.50
2023-05-05T22:53:11.056Z,74.70
2023-05-05T22:56:12.696Z,74.90
2023-05-05T22:59:14.339Z,75.00
2023-05-05T23:02:16.356Z,75.10
2023-05-05T23:05:18.059Z,75.20
2023-05-05T23:08:20.476Z,75.20
2023-05-05T23:11:22.124Z,75.30
2023-05-05T23:14:24.104Z,75.50
2023-05-05T23:17:25.808Z,75.50
2023-05-05T23:20:27.630Z,75.70
2023-05-05T23:23:30.107Z,75.80
2023-05-05T23:26:31.726Z,75.90
2023-05-05T23:29:33.360Z,75.90
2023-05-05T23:32:35.320Z,76.10
2023-05-05T23:35:39.482Z,76.00
2023-05-05T23:38:41.269Z,76.00
2023-05-05T23:41:42.915Z,76.10
2023-05-05T23:44:44.589Z,76.20
2023-05-05T23:47:46.358Z,76.20
2023-05-05T23:50:48.027Z,76.20
2023-05-05T23:53:49.876Z,76.20
2023-05-05T23:56:51.699Z,76.30
2023-05-05T23:59:53.348Z,76.40
